createdAt,value
2022-12-26T00:00:16.623Z,100618.50
2022-12-26T00:03:10.716Z,100614.71
2022-12-26T00:05:44.645Z,100618.83
2022-12-26T00:08:18.329Z,100628.20
2022-12-26T00:10:51.899Z,100623.84
2022-12-26T00:13:39.124Z,100618.27
2022-12-26T00:16:17.654Z,100617.59
2022-12-26T00:18:52.037Z,100611.98
2022-12-26T00:21:29.445Z,100608.75
2022-12-26T00:24:04.418Z,100611.23
2022-12-26T00:26:38.326Z,100613.15
2022-12-26T00:29:12.156Z,100604.93
2022-12-26T00:31:47.324Z,100599.41
2022-12-26T00:34:21.405Z,100596.71
2022-12-26T00:36:56.550Z,100591.15
2022-12-26T00:39:30.390Z,100587.27
2022-12-26T00:42:03.935Z,100591.32
2022-12-26T00:44:37.888Z,100597.17
2022-12-26T00:47:11.576Z,100601.23
2022-12-26T00:50:11.700Z,100604.06
2022-12-26T00:52:39.340Z,100603.36
2022-12-26T00:55:13.882Z,100598.30
2022-12-26T00:57:47.664Z,100602.70
2022-12-26T01:00:21.821Z,100596.31
2022-12-26T01:02:55.611Z,100586.59
2022-12-26T01:05:30.520Z,100572.02
2022-12-26T01:08:19.648Z,100568.70
2022-12-26T01:10:57.773Z,100567.88
2022-12-26T01:13:31.480Z,100565.05
2022-12-26T01:16:08.008Z,100564.77
2022-12-26T01:18:42.000Z,100548.20
2022-12-26T01:21:15.673Z,100542.38
2022-12-26T01:23:49.162Z,100545.70
2022-12-26T01:26:22.845Z,100549.82
2022-12-26T01:28:56.928Z,100547.25
2022-12-26T01:31:30.445Z,100540.09
2022-12-26T01:34:04.386Z,100542.02
2022-12-26T01:36:38.290Z,100552.51
2022-12-26T01:39:11.680Z,100554.88
2022-12-26T01:41:45.791Z,100559.13
2022-12-26T01:45:00.810Z,100546.84
2022-12-26T01:47:45.287Z,100548.41
2022-12-26T01:50:29.654Z,100549.86
2022-12-26T01:53:09.397Z,100545.30
2022-12-26T01:55:45.502Z,100544.80
2022-12-26T01:58:26.036Z,100545.68
2022-12-26T02:01:00.847Z,100531.19
2022-12-26T02:03:54.261Z,100528.08
2022-12-26T02:06:28.416Z,100525.66
2022-12-26T02:09:02.920Z,100534.13
2022-12-26T02:11:43.299Z,100530.98
2022-12-26T02:14:17.059Z,100522.46
2022-12-26T02:16:51.243Z,100518.27
2022-12-26T02:19:35.626Z,100510.06
2022-12-26T02:22:38.010Z,100505.64
2022-12-26T02:25:40.246Z,100499.64
2022-12-26T02:28:37.203Z,100501.77
2022-12-26T02:31:16.542Z,100497.22
2022-12-26T02:34:04.701Z,100484.18
2022-12-26T02:37:00.361Z,100477.80
2022-12-26T02:39:49.126Z,100473.69
2022-12-26T02:42:35.498Z,100467.42
2022-12-26T02:45:35.174Z,100463.52
2022-12-26T02:48:15.549Z,100454.35
2022-12-26T02:51:20.488Z,100447.89
2022-12-26T02:54:21.210Z,100439.51
2022-12-26T02:57:17.413Z,100438.01
2022-12-26T03:00:14.156Z,100439.62
2022-12-26T03:03:11.492Z,100451.19
2022-12-26T03:06:07.543Z,100446.63
2022-12-26T03:09:02.568Z,100435.68
2022-12-26T03:12:09.004Z,100421.61
2022-12-26T03:14:49.361Z,100402.86
2022-12-26T03:17:30.010Z,100405.48
2022-12-26T03:20:08.036Z,100402.40
2022-12-26T03:22:45.116Z,100397.02
2022-12-26T03:25:40.512Z,100395.29
2022-12-26T03:28:14.598Z,100385.17
2022-12-26T03:30:51.418Z,100378.73
2022-12-26T03:33:46.337Z,100372.09
2022-12-26T03:36:33.475Z,100361.16
2022-12-26T03:39:17.269Z,100346.50
2022-12-26T03:42:19.389Z,100346.02
2022-12-26T03:45:19.513Z,100349.41
2022-12-26T03:48:20.336Z,100332.20
2022-12-26T03:51:18.334Z,100320.09
2022-12-26T03:54:14.729Z,100317.20
2022-12-26T03:57:11.532Z,100323.16
2022-12-26T04:00:08.340Z,100331.10
2022-12-26T04:03:07.256Z,100324.55
2022-12-26T04:06:02.506Z,100305.67
2022-12-26T04:09:04.842Z,100291.65
2022-12-26T04:11:59.217Z,100287.95
2022-12-26T04:14:59.190Z,100284.27
2022-12-26T04:17:58.589Z,100287.67
2022-12-26T04:20:38.976Z,100277.93
2022-12-26T04:23:36.581Z,100270.59
2022-12-26T04:26:33.999Z,100262.83
2022-12-26T04:29:26.122Z,100257.77
2022-12-26T04:32:22.742Z,100247.41
2022-12-26T04:35:21.704Z,100239.49
2022-12-26T04:38:14.916Z,100236.13
2022-12-26T04:41:14.121Z,100244.20
2022-12-26T04:44:10.792Z,100245.92
2022-12-26T04:46:47.206Z,100241.04
2022-12-26T04:49:39.172Z,100232.98
2022-12-26T04:52:14.945Z,100230.71
2022-12-26T04:54:50.769Z,100222.98
2022-12-26T04:57:25.962Z,100214.60
2022-12-26T05:00:02.250Z,100209.35
2022-12-26T05:02:53.559Z,100205.02
2022-12-26T05:05:47.934Z,100197.39
2022-12-26T05:08:45.225Z,100188.85
2022-12-26T05:11:18.559Z,100186.48
2022-12-26T05:13:52.996Z,100186.33
2022-12-26T05:16:44.614Z,100180.45
2022-12-26T05:19:37.164Z,100169.80
2022-12-26T05:22:29.961Z,100159.92
2022-12-26T05:25:21.349Z,100153.95
2022-12-26T05:28:13.874Z,100155.23
2022-12-26T05:30:47.469Z,100141.59
2022-12-26T05:33:38.426Z,100125.93
2022-12-26T05:36:12.535Z,100113.38
2022-12-26T05:38:46.930Z,100120.34
2022-12-26T05:41:20.715Z,100136.29
2022-12-26T05:43:54.305Z,100144.73
2022-12-26T05:46:28.272Z,100154.66
2022-12-26T05:49:02.095Z,100152.81
2022-12-26T05:51:35.952Z,100154.50
2022-12-26T05:54:09.568Z,100165.20
2022-12-26T05:56:48.975Z,100148.81
2022-12-26T05:59:23.121Z,100134.47
2022-12-26T06:01:56.572Z,100126.05
2022-12-26T06:04:30.575Z,100120.88
2022-12-26T06:07:03.803Z,100116.06
2022-12-26T06:09:37.437Z,100111.88
2022-12-26T06:12:10.980Z,100115.20
2022-12-26T06:14:44.474Z,100135.09
2022-12-26T06:17:17.768Z,100153.00
2022-12-26T06:19:51.124Z,100160.02
2022-12-26T06:22:24.492Z,100160.27
2022-12-26T06:24:57.954Z,100148.78
2022-12-26T06:27:31.357Z,100136.51
2022-12-26T06:30:04.831Z,100119.73
2022-12-26T06:32:38.622Z,100106.12
2022-12-26T06:35:12.998Z,100089.69
2022-12-26T06:37:46.707Z,100088.23
2022-12-26T06:40:20.510Z,100082.59
2022-12-26T06:42:53.835Z,100083.95
2022-12-26T06:45:28.073Z,100077.86
2022-12-26T06:48:01.524Z,100050.43
2022-12-26T06:50:37.392Z,100060.54
2022-12-26T06:53:10.900Z,100063.11
2022-12-26T06:55:44.779Z,100065.84
2022-12-26T06:58:18.995Z,100048.73
2022-12-26T07:00:52.506Z,100042.34
2022-12-26T07:03:26.749Z,100058.94
2022-12-26T07:06:03.502Z,100062.88
2022-12-26T07:08:37.267Z,100060.65
2022-12-26T07:11:16.782Z,100045.39
2022-12-26T07:13:50.197Z,100036.79
2022-12-26T07:16:24.813Z,100032.27
2022-12-26T07:18:59.497Z,100027.62
2022-12-26T07:21:40.340Z,100029.48
2022-12-26T07:24:20.813Z,100038.02
2022-12-26T07:26:54.830Z,100029.30
2022-12-26T07:29:28.630Z,100031.65
2022-12-26T07:32:02.992Z,100033.20
2022-12-26T07:34:36.561Z,100019.07
2022-12-26T07:37:09.975Z,100017.33
2022-12-26T07:39:43.573Z,100023.79
2022-12-26T07:42:17.249Z,100031.63
2022-12-26T07:44:50.997Z,100029.35
2022-12-26T07:47:24.692Z,100027.54
2022-12-26T07:49:59.109Z,100031.29
2022-12-26T07:52:32.633Z,100035.77
2022-12-26T07:55:06.566Z,100034.50
2022-12-26T07:57:48.868Z,100034.03
2022-12-26T08:00:24.477Z,100030.51
2022-12-26T08:03:06.469Z,100018.95
2022-12-26T08:05:41.713Z,100008.02
2022-12-26T08:08:15.207Z,99997.55
2022-12-26T08:10:49.061Z,100003.31
2022-12-26T08:13:22.872Z,100003.73
2022-12-26T08:15:57.160Z,100015.05
2022-12-26T08:18:30.735Z,100008.45
2022-12-26T08:21:04.728Z,100003.74
2022-12-26T08:23:38.794Z,100011.95
2022-12-26T08:26:21.057Z,100008.65
2022-12-26T08:28:57.018Z,100003.14
2022-12-26T08:31:30.431Z,99993.77
2022-12-26T08:34:04.197Z,99990.34
2022-12-26T08:36:38.512Z,99984.50
2022-12-26T08:39:12.399Z,99983.91
2022-12-26T08:41:46.197Z,99982.80
2022-12-26T08:44:28.329Z,99985.25
2022-12-26T08:47:02.952Z,99985.09
2022-12-26T08:49:36.723Z,99975.66
2022-12-26T08:52:10.652Z,99965.59
2022-12-26T08:54:44.980Z,99954.30
2022-12-26T08:57:19.161Z,99949.70
2022-12-26T08:59:52.997Z,99948.39
2022-12-26T09:02:27.462Z,99952.91
2022-12-26T09:05:01.405Z,99955.89
2022-12-26T09:07:35.784Z,99953.50
2022-12-26T09:10:10.575Z,99962.15
2022-12-26T09:12:44.193Z,99962.23
2022-12-26T09:15:17.912Z,99958.09
2022-12-26T09:17:51.427Z,99949.88
2022-12-26T09:20:25.325Z,99942.83
2022-12-26T09:22:58.869Z,99941.70
2022-12-26T09:25:32.368Z,99940.48
2022-12-26T09:28:05.990Z,99933.70
2022-12-26T09:30:40.241Z,99930.70
2022-12-26T09:33:13.573Z,99928.66
2022-12-26T09:35:46.809Z,99920.88
2022-12-26T09:38:20.985Z,99914.55
2022-12-26T09:41:04.720Z,99911.24
2022-12-26T09:43:54.109Z,99911.52
2022-12-26T09:46:34.407Z,99907.27
2022-12-26T09:49:12.235Z,99921.27
2022-12-26T09:51:50.103Z,99918.94
2022-12-26T09:54:31.552Z,99916.96
2022-12-26T09:57:14.865Z,99916.21
2022-12-26T09:59:56.493Z,99913.82
2022-12-26T10:02:30.667Z,99910.41
2022-12-26T10:05:04.419Z,99911.35
2022-12-26T10:07:44.213Z,99910.09
2022-12-26T10:10:26.560Z,99906.98
2022-12-26T10:13:09.298Z,99902.73
2022-12-26T10:15:49.394Z,99904.23
2022-12-26T10:18:37.977Z,99897.87
2022-12-26T10:21:17.105Z,99888.98
2022-12-26T10:23:54.577Z,99892.25
2022-12-26T10:26:33.680Z,99895.69
2022-12-26T10:29:15.054Z,99895.90
2022-12-26T10:31:52.369Z,99885.54
2022-12-26T10:34:29.638Z,99882.09
2022-12-26T10:37:07.755Z,99872.95
2022-12-26T10:39:49.874Z,99864.98
2022-12-26T10:42:29.829Z,99865.77
2022-12-26T10:45:07.809Z,99863.85
2022-12-26T10:47:44.146Z,99853.83
2022-12-26T10:50:27.172Z,99846.33
2022-12-26T10:53:05.429Z,99851.44
2022-12-26T10:55:39.194Z,99839.06
2022-12-26T10:58:19.983Z,99834.12
2022-12-26T11:00:53.780Z,99838.25
2022-12-26T11:03:27.920Z,99841.70
2022-12-26T11:06:09.587Z,99842.05
2022-12-26T11:08:49.730Z,99841.02
2022-12-26T11:11:46.276Z,99844.59
2022-12-26T11:14:44.896Z,99842.97
2022-12-26T11:17:29.533Z,99836.66
2022-12-26T11:20:28.469Z,99837.14
2022-12-26T11:23:22.382Z,99833.19
2022-12-26T11:25:57.614Z,99831.19
2022-12-26T11:28:34.821Z,99834.92
2022-12-26T11:31:25.409Z,99836.55
2022-12-26T11:34:00.811Z,99835.91
2022-12-26T11:36:35.033Z,99835.81
2022-12-26T11:39:21.685Z,99832.13
2022-12-26T11:41:56.965Z,99826.74
2022-12-26T11:44:35.492Z,99823.95
2022-12-26T11:47:15.745Z,99822.36
2022-12-26T11:50:00.934Z,99822.70
2022-12-26T11:52:44.936Z,99821.09
2022-12-26T11:55:35.939Z,99806.54
2022-12-26T11:58:23.523Z,99805.23
2022-12-26T12:01:14.888Z,99800.98
2022-12-26T12:03:50.537Z,99800.23
2022-12-26T12:06:56.449Z,99788.32
2022-12-26T12:09:38.141Z,99787.75
2022-12-26T12:12:20.498Z,99786.48
2022-12-26T12:15:10.349Z,99797.16
2022-12-26T12:17:53.753Z,99794.69
2022-12-26T12:20:38.048Z,99794.69
2022-12-26T12:23:32.283Z,99800.59
2022-12-26T12:26:12.249Z,99803.78
2022-12-26T12:29:21.919Z,99807.21
2022-12-26T12:32:17.590Z,99804.41
2022-12-26T12:35:20.916Z,99810.33
2022-12-26T12:38:22.218Z,99809.00
2022-12-26T12:41:08.819Z,99814.67
2022-12-26T12:43:50.803Z,99812.33
2022-12-26T12:46:33.971Z,99808.64
2022-12-26T12:49:44.487Z,99808.86
2022-12-26T12:52:28.925Z,99811.60
2022-12-26T12:55:21.530Z,99818.33
2022-12-26T12:58:00.432Z,99822.86
2022-12-26T13:00:42.557Z,99826.57
2022-12-26T13:03:26.211Z,99821.47
2022-12-26T13:06:08.163Z,99819.90
2022-12-26T13:08:46.046Z,99826.09
2022-12-26T13:11:27.615Z,99823.86
2022-12-26T13:14:06.820Z,99822.91
2022-12-26T13:16:45.320Z,99822.11
2022-12-26T13:19:25.217Z,99822.46
2022-12-26T13:22:04.441Z,99818.64
2022-12-26T13:24:41.851Z,99822.77
2022-12-26T13:27:21.363Z,99822.40
2022-12-26T13:29:55.362Z,99824.48
2022-12-26T13:32:30.917Z,99827.84
2022-12-26T13:35:06.016Z,99831.08
2022-12-26T13:38:00.309Z,99824.21
2022-12-26T13:40:34.668Z,99826.39
2022-12-26T13:43:36.401Z,99824.77
2022-12-26T13:46:56.645Z,99815.61
2022-12-26T13:49:38.403Z,99811.42
2022-12-26T13:52:35.762Z,99814.70
2022-12-26T13:55:43.231Z,99817.58
2022-12-26T13:58:34.896Z,99819.48
2022-12-26T14:01:19.622Z,99817.86
2022-12-26T14:04:13.526Z,99817.64
2022-12-26T14:07:03.297Z,99811.90
2022-12-26T14:09:57.379Z,99806.02
2022-12-26T14:12:49.978Z,99812.46
2022-12-26T14:15:50.716Z,99816.56
2022-12-26T14:18:37.298Z,99820.77
2022-12-26T14:21:39.359Z,99830.94
2022-12-26T14:24:32.889Z,99834.30
2022-12-26T14:27:26.497Z,99823.96
2022-12-26T14:30:09.597Z,99819.14
2022-12-26T14:32:50.793Z,99822.85
2022-12-26T14:35:34.214Z,99811.95
2022-12-26T14:38:24.770Z,99804.77
2022-12-26T14:41:09.992Z,99804.91
2022-12-26T14:43:47.286Z,99814.03
2022-12-26T14:46:51.996Z,99816.05
2022-12-26T14:49:38.739Z,99817.45
2022-12-26T14:52:41.120Z,99817.90
2022-12-26T14:55:50.396Z,99828.57
2022-12-26T14:58:31.386Z,99832.23
2022-12-26T15:01:35.345Z,99828.17
2022-12-26T15:04:17.189Z,99833.90
2022-12-26T15:07:24.195Z,99838.98
2022-12-26T15:10:31.313Z,99839.96
2022-12-26T15:13:33.774Z,99836.52
2022-12-26T15:16:22.051Z,99829.01
2022-12-26T15:19:34.083Z,99830.92
2022-12-26T15:22:40.687Z,99837.16
2022-12-26T15:25:38.613Z,99833.21
2022-12-26T15:28:37.771Z,99825.20
2022-12-26T15:31:38.029Z,99826.34
2022-12-26T15:34:32.798Z,99831.11
2022-12-26T15:37:18.061Z,99831.17
2022-12-26T15:39:57.864Z,99832.15
2022-12-26T15:42:44.042Z,99827.95
2022-12-26T15:45:31.177Z,99825.08
2022-12-26T15:48:13.214Z,99822.96
2022-12-26T15:50:59.111Z,99829.23
2022-12-26T15:53:46.072Z,99825.36
2022-12-26T15:56:51.580Z,99825.09
2022-12-26T15:59:50.730Z,99826.73
2022-12-26T16:02:41.045Z,99824.95
2022-12-26T16:05:56.599Z,99821.25
2022-12-26T16:09:03.838Z,99822.82
2022-12-26T16:11:50.757Z,99819.92
2022-12-26T16:14:33.810Z,99823.12
2022-12-26T16:17:28.367Z,99819.30
2022-12-26T16:20:02.133Z,99815.15
2022-12-26T16:22:47.320Z,99817.10
2022-12-26T16:25:24.744Z,99814.42
2022-12-26T16:28:01.281Z,99809.30
2022-12-26T16:30:38.735Z,99812.06
2022-12-26T16:33:16.833Z,99818.61
2022-12-26T16:35:57.530Z,99820.57
2022-12-26T16:38:35.305Z,99822.59
2022-12-26T16:41:23.849Z,99829.73
2022-12-26T16:43:58.742Z,99832.70
2022-12-26T16:46:34.856Z,99830.98
2022-12-26T16:49:11.316Z,99827.52
2022-12-26T16:51:52.816Z,99823.97
2022-12-26T16:54:40.083Z,99813.54
2022-12-26T16:57:20.917Z,99812.08
2022-12-26T16:59:57.271Z,99816.67
2022-12-26T17:02:34.909Z,99819.44
2022-12-26T17:05:19.372Z,99818.59
2022-12-26T17:07:55.664Z,99822.86
2022-12-26T17:10:31.843Z,99831.44
2022-12-26T17:13:09.166Z,99833.94
2022-12-26T17:15:53.030Z,99829.98
2022-12-26T17:18:47.251Z,99828.42
2022-12-26T17:21:29.269Z,99826.80
2022-12-26T17:24:26.339Z,99826.77
2022-12-26T17:27:21.033Z,99825.09
2022-12-26T17:30:00.924Z,99820.14
2022-12-26T17:32:41.580Z,99816.38
2022-12-26T17:35:18.550Z,99811.40
2022-12-26T17:37:57.228Z,99812.21
2022-12-26T17:40:32.120Z,99806.48
2022-12-26T17:43:22.663Z,99802.86
2022-12-26T17:45:56.904Z,99804.51
2022-12-26T17:48:31.947Z,99809.16
2022-12-26T17:51:08.371Z,99809.77
2022-12-26T17:53:44.234Z,99816.47
2022-12-26T17:56:21.288Z,99820.80
2022-12-26T17:58:55.947Z,99821.83
2022-12-26T18:01:30.673Z,99822.86
2022-12-26T18:04:05.353Z,99821.95
2022-12-26T18:06:41.093Z,99819.61
2022-12-26T18:09:27.509Z,99826.06
2022-12-26T18:12:01.569Z,99832.17
2022-12-26T18:14:35.743Z,99832.77
2022-12-26T18:17:09.659Z,99828.23
2022-12-26T18:19:44.936Z,99826.77
2022-12-26T18:22:21.655Z,99820.55
2022-12-26T18:24:57.915Z,99824.33
2022-12-26T18:27:34.248Z,99831.52
2022-12-26T18:30:12.451Z,99828.36
2022-12-26T18:32:47.731Z,99828.08
2022-12-26T18:35:23.303Z,99829.54
2022-12-26T18:37:57.604Z,99834.48
2022-12-26T18:40:37.463Z,99835.85
2022-12-26T18:43:13.279Z,99839.49
2022-12-26T18:45:49.039Z,99837.63
2022-12-26T18:48:23.290Z,99835.79
2022-12-26T18:50:58.196Z,99837.42
2022-12-26T18:53:32.375Z,99838.79
2022-12-26T18:56:07.945Z,99837.66
2022-12-26T18:58:42.115Z,99836.84
2022-12-26T19:01:19.120Z,99838.37
2022-12-26T19:03:54.245Z,99844.73
2022-12-26T19:06:33.256Z,99844.91
2022-12-26T19:09:07.907Z,99843.69
2022-12-26T19:11:42.656Z,99848.06
2022-12-26T19:14:23.019Z,99837.77
2022-12-26T19:16:58.071Z,99826.38
2022-12-26T19:19:33.186Z,99829.66
2022-12-26T19:22:08.144Z,99835.31
2022-12-26T19:24:42.470Z,99847.73
2022-12-26T19:27:17.156Z,99850.38
2022-12-26T19:29:51.438Z,99849.91
2022-12-26T19:32:27.446Z,99851.77
2022-12-26T19:35:03.235Z,99854.70
2022-12-26T19:37:38.844Z,99858.82
2022-12-26T19:40:21.268Z,99863.86
2022-12-26T19:42:59.699Z,99865.01
2022-12-26T19:45:33.948Z,99868.39
2022-12-26T19:48:10.111Z,99876.04
2022-12-26T19:50:45.483Z,99875.80
2022-12-26T19:53:19.717Z,99880.69
2022-12-26T19:55:54.288Z,99880.04
2022-12-26T19:58:31.217Z,99884.50
2022-12-26T20:01:12.050Z,99892.42
2022-12-26T20:03:47.079Z,99895.52
2022-12-26T20:06:24.807Z,99893.13
2022-12-26T20:09:02.180Z,99895.99
2022-12-26T20:11:40.987Z,99891.48
2022-12-26T20:14:19.219Z,99890.35
2022-12-26T20:17:05.560Z,99895.41
2022-12-26T20:19:43.617Z,99899.39
2022-12-26T20:22:19.840Z,99903.17
2022-12-26T20:24:53.983Z,99908.92
2022-12-26T20:27:29.272Z,99913.48
2022-12-26T20:30:04.107Z,99914.63
2022-12-26T20:32:38.819Z,99916.14
2022-12-26T20:35:13.990Z,99916.51
2022-12-26T20:37:48.283Z,99916.23
2022-12-26T20:40:25.257Z,99921.51
2022-12-26T20:43:00.802Z,99925.27
2022-12-26T20:45:35.392Z,99925.77
2022-12-26T20:48:09.931Z,99930.76
2022-12-26T20:50:44.973Z,99933.42
2022-12-26T20:53:22.613Z,99928.11
2022-12-26T20:55:58.499Z,99929.13
2022-12-26T20:58:34.799Z,99936.20
2022-12-26T21:01:13.572Z,99939.76
2022-12-26T21:03:48.701Z,99941.15
2022-12-26T21:06:25.147Z,99938.56
2022-12-26T21:09:01.113Z,99945.59
2022-12-26T21:11:38.483Z,99944.43
2022-12-26T21:14:16.440Z,99947.34
2022-12-26T21:16:53.349Z,99954.34
2022-12-26T21:19:31.012Z,99955.59
2022-12-26T21:22:05.491Z,99960.11
2022-12-26T21:24:40.000Z,99962.71
2022-12-26T21:27:15.626Z,99957.77
2022-12-26T21:29:50.050Z,99952.56
2022-12-26T21:32:24.665Z,99947.67
2022-12-26T21:34:58.578Z,99948.09
2022-12-26T21:37:51.937Z,99946.16
2022-12-26T21:40:28.083Z,99940.63
2022-12-26T21:43:01.493Z,99937.13
2022-12-26T21:45:35.935Z,99936.94
2022-12-26T21:48:10.768Z,99937.43
2022-12-26T21:50:47.409Z,99942.62
2022-12-26T21:53:21.861Z,99945.96
2022-12-26T21:55:55.432Z,99950.78
2022-12-26T21:58:29.640Z,99949.85
2022-12-26T22:01:03.713Z,99949.00
2022-12-26T22:03:57.793Z,99947.56
2022-12-26T22:06:32.785Z,99943.77
2022-12-26T22:09:07.628Z,99944.65
2022-12-26T22:11:59.468Z,99946.68
2022-12-26T22:14:33.535Z,99948.81
2022-12-26T22:17:07.239Z,99949.95
2022-12-26T22:19:42.053Z,99944.00
2022-12-26T22:22:15.663Z,99944.13
2022-12-26T22:24:49.648Z,99953.52
2022-12-26T22:27:23.827Z,99953.25
2022-12-26T22:29:57.515Z,99950.05
2022-12-26T22:32:31.526Z,99943.08
2022-12-26T22:35:05.944Z,99928.75
2022-12-26T22:37:39.916Z,99922.70
2022-12-26T22:40:15.328Z,99924.35
2022-12-26T22:42:49.275Z,99932.77
2022-12-26T22:45:23.650Z,99939.96
2022-12-26T22:47:57.332Z,99943.71
2022-12-26T22:50:30.948Z,99942.48
2022-12-26T22:53:05.052Z,99941.48
2022-12-26T22:55:38.786Z,99943.04
2022-12-26T22:58:12.642Z,99949.41
2022-12-26T23:00:47.057Z,99946.48
2022-12-26T23:03:21.043Z,99947.15
2022-12-26T23:05:56.527Z,99945.27
2022-12-26T23:08:31.653Z,99946.27
2022-12-26T23:11:06.704Z,99954.64
2022-12-26T23:13:42.295Z,99957.55
2022-12-26T23:16:21.291Z,99951.68
2022-12-26T23:19:17.336Z,99944.89
2022-12-26T23:21:52.262Z,99939.67
2022-12-26T23:24:27.720Z,99937.91
2022-12-26T23:27:18.312Z,99937.01
2022-12-26T23:30:11.000Z,99933.65
2022-12-26T23:32:47.197Z,99929.12
2022-12-26T23:35:22.866Z,99927.23
2022-12-26T23:37:56.540Z,99930.98
2022-12-26T23:40:30.007Z,99927.29
2022-12-26T23:43:03.753Z,99911.25
2022-12-26T23:45:37.429Z,99904.95
2022-12-26T23:48:11.494Z,99896.89
2022-12-26T23:50:45.747Z,99898.98
2022-12-26T23:53:19.672Z,99898.36
2022-12-26T23:55:53.880Z,99899.10
2022-12-26T23:58:28.168Z,99895.72
